Harrisburg International Airport Harrisburg US
ICAO: KMDT
IATA: MDT
Category: Medium
Scheduled Services: Yes

Elevation: 310 ft
TransAlt. 18000 ft.

Airport Communications:
APP/DEP:118.25
ATIS:118.8
GND:121.7
ANG OPS:39.51
TWR:124.8

KMDT Zoom In..

If Map Doesn't Load, Click Here

Runways:

(A) RW 13 length 10002 ft width 200 ft
ILS 110.90 / hdg 128

(B) RW 31 length 10002 ft width 200 ft
ILS 110.90 / hdg 308

Location; KMDT
Day. 21 / Time. 14.25 Zulu
* Altimeter: 30.17
* Temperature: 23° c. 73.4°f.
* Wind from: 170° Speed 08 kn.
Dewpoint: 18° c.
Visibility: 10 Statute Miles.
Clouds: Broken 2300 ft.
Clouds: Overcast 4500 ft.

KMDT 211425Z 17008KT 10SM BKN023 OVC045 23/18 A3017 RMK AO2 T02280183


Wind From 170°
Speed 08 kn.

 
 
jpsmedia.com for Web Design worldairports.se 2018   terms of use